Time;durP1;ratioP1;P1;durP2;ratioP2;P2;SDS_P1;SDS_P2;PMS_P1;PMS_P2;Temp;Humidity;BMP_temperature;BMP_pressure;BME280_temperature;BME280_humidity;BME280_pressure;Samples;Min_cycle;Max_cycle;Signal;HPM_P1;HPM_P2
2023/06/09 00:01:37;;;;;;;17.38;5.85;;;12.00;99.90;;;;;;5017632;28;20033;-86
2023/06/09 00:04:03;;;;;;;14.55;5.30;;;12.00;99.90;;;;;;5016927;28;20076;-87
2023/06/09 00:06:30;;;;;;;18.80;6.25;;;12.00;99.90;;;;;;5035066;28;20049;-87
2023/06/09 00:08:59;;;;;;;17.92;5.65;;;12.00;99.90;;;;;;5035185;28;20045;-87
2023/06/09 00:11:25;;;;;;;15.30;5.35;;;12.70;99.90;;;;;;5034403;28;20042;-88
2023/06/09 00:13:51;;;;;;;16.70;5.57;;;12.00;99.90;;;;;;5034075;28;20038;-87
2023/06/09 00:16:17;;;;;;;19.05;5.90;;;12.30;99.90;;;;;;5017049;28;20046;-88
2023/06/09 00:18:45;;;;;;;18.63;5.72;;;11.90;99.90;;;;;;5016801;28;20550;-87
2023/06/09 00:21:18;;;;;;;16.27;5.82;;;12.40;99.90;;;;;;5017058;28;20048;-87
2023/06/09 00:23:45;;;;;;;17.60;6.30;;;11.80;99.90;;;;;;5035062;28;20045;-88
2023/06/09 00:26:11;;;;;;;16.30;5.93;;;11.80;99.90;;;;;;5033751;28;20500;-87
2023/06/09 00:28:37;;;;;;;16.42;5.90;;;11.80;99.90;;;;;;5017346;28;20053;-87
2023/06/09 00:31:03;;;;;;;19.08;6.30;;;11.80;99.90;;;;;;5035009;28;20124;-88
2023/06/09 00:33:28;;;;;;;16.90;6.00;;;11.80;99.90;;;;;;5016179;28;20404;-88
2023/06/09 00:35:54;;;;;;;19.23;6.43;;;12.30;99.90;;;;;;5017274;28;20049;-87
2023/06/09 00:38:20;;;;;;;21.05;5.95;;;11.80;99.90;;;;;;5016438;28;20528;-87
2023/06/09 00:40:45;;;;;;;19.33;6.57;;;11.90;99.90;;;;;;5015970;28;20049;-88
2023/06/09 00:43:11;;;;;;;19.63;5.93;;;11.70;99.90;;;;;;5016644;28;20132;-87
2023/06/09 00:45:36;;;;;;;18.73;6.63;;;11.70;99.90;;;;;;5034538;28;20044;-87
2023/06/09 00:48:03;;;;;;;18.83;6.75;;;11.70;99.90;;;;;;5033825;28;20046;-88
2023/06/09 00:50:29;;;;;;;21.95;7.03;;;11.70;99.90;;;;;;5016337;28;20457;-87
2023/06/09 00:52:56;;;;;;;15.77;6.25;;;11.60;99.90;;;;;;5015824;28;20059;-87
2023/06/09 00:55:22;;;;;;;18.27;6.43;;;11.60;99.90;;;;;;5034170;28;20072;-87
2023/06/09 00:57:55;;;;;;;19.50;6.50;;;11.50;99.90;;;;;;5034387;28;20098;-88
2023/06/09 01:00:27;;;;;;;15.30;6.05;;;11.50;99.90;;;;;;5033660;28;20049;-87
2023/06/09 01:02:56;;;;;;;22.88;6.95;;;11.50;99.90;;;;;;5018287;28;20137;-88
2023/06/09 01:05:22;;;;;;;18.33;6.25;;;11.90;99.90;;;;;;5017356;28;20436;-87
2023/06/09 01:07:55;;;;;;;21.02;7.50;;;11.50;99.90;;;;;;5015620;28;20041;-88
2023/06/09 01:10:45;;;;;;;22.13;6.97;;;12.00;99.90;;;;;;5015954;28;20049;-87
2023/06/09 01:13:24;;;;;;;18.52;7.20;;;11.50;99.90;;;;;;5033834;28;20034;-87
2023/06/09 01:16:03;;;;;;;19.17;6.18;;;11.50;99.90;;;;;;5015507;28;20060;-88
2023/06/09 01:18:30;;;;;;;18.67;7.40;;;11.50;99.90;;;;;;5033831;28;20053;-86
2023/06/09 01:21:12;;;;;;;19.50;6.82;;;11.50;99.90;;;;;;5034034;28;20037;-87
2023/06/09 01:23:58;;;;;;;18.02;6.75;;;11.40;99.90;;;;;;5015693;28;20091;-88
2023/06/09 01:26:25;;;;;;;18.98;7.00;;;11.40;99.90;;;;;;5016047;28;20062;-88
2023/06/09 01:28:52;;;;;;;16.25;6.53;;;11.40;99.90;;;;;;5015144;28;20049;-87
2023/06/09 01:31:18;;;;;;;18.00;6.40;;;11.60;99.90;;;;;;5016260;28;20064;-88
2023/06/09 01:33:44;;;;;;;21.45;6.60;;;11.30;99.90;;;;;;5033734;28;20048;-87
2023/06/09 01:36:11;;;;;;;20.42;6.75;;;11.30;99.90;;;;;;5014526;28;20037;-87
2023/06/09 01:38:37;;;;;;;19.67;6.68;;;11.30;99.90;;;;;;5015384;28;20068;-87
2023/06/09 01:41:03;;;;;;;18.95;6.55;;;12.10;99.90;;;;;;5015949;28;20050;-88
2023/06/09 01:43:29;;;;;;;19.48;6.82;;;11.40;99.90;;;;;;5014776;28;20519;-87
2023/06/09 01:45:55;;;;;;;25.52;6.95;;;11.30;99.90;;;;;;5033185;28;20037;-87
2023/06/09 01:48:46;;;;;;;16.27;5.78;;;11.30;99.90;;;;;;5015354;28;20554;-87
2023/06/09 01:51:22;;;;;;;23.33;6.20;;;11.20;99.90;;;;;;5014637;28;20129;-87
2023/06/09 01:53:58;;;;;;;21.60;6.22;;;11.30;99.90;;;;;;5015529;28;20128;-87
2023/06/09 01:56:30;;;;;;;18.52;6.97;;;12.30;99.90;;;;;;5032366;28;20041;-87
2023/06/09 01:59:00;;;;;;;19.70;6.30;;;11.30;99.90;;;;;;5015402;28;20408;-88
2023/06/09 02:01:27;;;;;;;19.33;6.57;;;11.60;99.90;;;;;;5032684;28;20041;-87
2023/06/09 02:03:55;;;;;;;20.48;7.00;;;11.20;99.90;;;;;;5014951;28;20076;-87
2023/06/09 02:06:24;;;;;;;21.80;7.28;;;12.00;99.90;;;;;;5018512;28;20052;-87
2023/06/09 02:08:50;;;;;;;21.42;7.10;;;11.30;99.90;;;;;;5041102;28;20026;-88
2023/06/09 02:11:16;;;;;;;19.73;6.68;;;11.20;99.90;;;;;;5026312;28;20072;-87
2023/06/09 02:13:42;;;;;;;20.33;6.40;;;11.20;99.90;;;;;;5035187;28;20048;-87
2023/06/09 02:16:07;;;;;;;22.73;7.53;;;11.20;99.90;;;;;;5032646;28;20049;-87
2023/06/09 02:18:33;;;;;;;24.17;7.82;;;11.20;99.90;;;;;;5014608;28;20136;-87
2023/06/09 02:21:01;;;;;;;19.10;7.00;;;11.50;99.90;;;;;;5015254;28;20046;-87
2023/06/09 02:23:26;;;;;;;17.60;6.80;;;11.20;99.90;;;;;;5014980;28;20048;-87
2023/06/09 02:25:52;;;;;;;19.70;7.07;;;11.20;99.90;;;;;;5014611;28;20099;-87
2023/06/09 02:28:17;;;;;;;23.15;7.15;;;11.20;99.90;;;;;;5014689;28;20042;-88
2023/06/09 02:30:44;;;;;;;20.95;7.15;;;11.10;99.90;;;;;;5032603;28;20045;-87
2023/06/09 02:33:11;;;;;;;20.23;6.93;;;11.10;99.90;;;;;;5031925;28;20449;-87
2023/06/09 02:35:36;;;;;;;21.85;7.18;;;11.10;99.90;;;;;;5015396;28;20046;-87
2023/06/09 02:38:05;;;;;;;20.48;7.55;;;11.10;99.90;;;;;;5018889;28;20516;-87
2023/06/09 02:40:32;;;;;;;23.17;7.13;;;11.10;99.90;;;;;;5018526;28;20049;-87
2023/06/09 02:42:58;;;;;;;24.13;7.35;;;11.10;99.90;;;;;;5018962;28;20041;-88
2023/06/09 02:45:24;;;;;;;28.38;7.80;;;11.10;99.90;;;;;;5036006;28;20045;-86
2023/06/09 02:47:50;;;;;;;23.13;7.57;;;11.00;99.90;;;;;;5019019;28;20133;-87
2023/06/09 02:50:17;;;;;;;22.23;7.45;;;11.10;99.90;;;;;;5018787;28;20041;-87
2023/06/09 02:52:42;;;;;;;21.25;7.25;;;11.60;99.90;;;;;;5036282;28;20041;-87
2023/06/09 02:55:11;;;;;;;22.75;7.50;;;12.00;99.90;;;;;;5019698;28;20041;-88
2023/06/09 02:57:36;;;;;;;20.10;7.57;;;11.00;99.90;;;;;;5018852;28;20039;-87
2023/06/09 03:00:04;;;;;;;21.88;7.63;;;11.00;99.90;;;;;;5035741;28;20042;-87
2023/06/09 03:02:30;;;;;;;23.58;7.35;;;11.00;99.90;;;;;;5036382;28;20127;-87
2023/06/09 03:04:56;;;;;;;25.20;8.45;;;12.00;99.90;;;;;;5036298;28;20481;-87
2023/06/09 03:07:22;;;;;;;22.73;7.50;;;11.00;99.90;;;;;;5035508;28;20048;-87
2023/06/09 03:09:48;;;;;;;26.05;8.30;;;11.00;99.90;;;;;;5036146;28;20429;-87
2023/06/09 03:12:14;;;;;;;22.63;8.07;;;11.00;99.90;;;;;;4975546;23;20526;-87
2023/06/09 03:14:39;;;;;;;25.45;7.90;;;11.00;99.90;;;;;;4976900;28;20054;-87
2023/06/09 03:17:05;;;;;;;21.45;8.23;;;11.00;99.90;;;;;;4959876;28;20042;-86
2023/06/09 03:19:31;;;;;;;23.33;8.38;;;11.00;99.90;;;;;;4977580;28;20376;-87
2023/06/09 03:21:57;;;;;;;23.35;7.93;;;11.00;99.90;;;;;;4959221;28;20051;-87
2023/06/09 03:24:26;;;;;;;24.35;8.18;;;11.00;99.90;;;;;;4959683;28;20046;-87
2023/06/09 03:26:52;;;;;;;25.52;8.07;;;11.00;99.90;;;;;;4959832;28;20046;-87
2023/06/09 03:29:21;;;;;;;22.20;7.78;;;11.00;99.90;;;;;;4976432;28;20047;-87
2023/06/09 03:31:47;;;;;;;23.15;8.73;;;11.00;99.90;;;;;;4960115;28;20058;-86
2023/06/09 03:34:13;;;;;;;19.88;7.95;;;11.70;99.90;;;;;;4959689;28;20046;-87
2023/06/09 03:36:38;;;;;;;23.05;8.45;;;11.00;99.90;;;;;;4976408;28;20510;-87
2023/06/09 03:39:04;;;;;;;21.67;7.53;;;11.00;99.90;;;;;;4959402;28;20050;-87
2023/06/09 03:41:30;;;;;;;21.73;8.63;;;11.00;99.90;;;;;;4976748;28;20121;-86
2023/06/09 03:43:55;;;;;;;27.77;8.80;;;10.90;99.90;;;;;;4959045;28;20110;-87
2023/06/09 03:46:21;;;;;;;26.63;8.95;;;10.90;99.90;;;;;;4959097;28;20058;-87
2023/06/09 03:48:47;;;;;;;21.30;8.07;;;11.40;99.90;;;;;;4958879;28;20398;-87
2023/06/09 03:51:13;;;;;;;21.48;8.82;;;11.00;99.90;;;;;;4958962;28;20050;-87
2023/06/09 03:53:39;;;;;;;25.05;8.75;;;11.00;99.90;;;;;;4976358;28;20197;-87
2023/06/09 03:56:04;;;;;;;23.85;8.25;;;11.70;99.90;;;;;;4976008;28;20046;-86
2023/06/09 03:58:30;;;;;;;24.08;8.63;;;11.90;99.90;;;;;;4958966;28;20058;-88
2023/06/09 04:00:56;;;;;;;22.25;8.25;;;11.00;99.90;;;;;;4959551;28;20125;-86
2023/06/09 04:03:22;;;;;;;27.35;9.07;;;11.90;99.90;;;;;;4952924;28;20050;-87
2023/06/09 04:05:48;;;;;;;29.52;9.43;;;11.10;99.90;;;;;;4977828;28;20105;-87
2023/06/09 04:08:13;;;;;;;21.98;7.88;;;11.10;99.90;;;;;;4995548;28;20101;-87
2023/06/09 04:10:40;;;;;;;22.17;8.45;;;11.10;99.90;;;;;;4977547;28;20422;-86
2023/06/09 04:13:07;;;;;;;25.38;8.85;;;11.20;99.90;;;;;;4978022;28;20099;-87
2023/06/09 04:15:32;;;;;;;23.73;9.13;;;11.20;99.90;;;;;;4978441;28;20069;-87
2023/06/09 04:17:59;;;;;;;23.35;8.43;;;11.20;99.90;;;;;;4994844;28;20491;-87
2023/06/09 04:20:25;;;;;;;25.38;8.65;;;11.90;99.90;;;;;;4995530;28;20049;-87
2023/06/09 04:22:52;;;;;;;24.30;8.63;;;11.30;99.90;;;;;;4995486;28;20046;-87
2023/06/09 04:25:19;;;;;;;29.50;9.00;;;11.60;99.90;;;;;;4977063;28;20042;-87
2023/06/09 04:27:48;;;;;;;25.38;8.50;;;11.40;99.90;;;;;;4995739;28;20038;-87
2023/06/09 04:30:13;;;;;;;24.55;9.55;;;11.60;99.90;;;;;;4995269;28;20089;-88
2023/06/09 04:32:42;;;;;;;24.20;8.52;;;11.40;99.90;;;;;;4995998;28;20042;-87
2023/06/09 04:35:08;;;;;;;28.48;8.88;;;11.50;99.90;;;;;;4978840;28;20398;-87
2023/06/09 04:37:36;;;;;;;21.88;8.45;;;11.50;99.90;;;;;;4996883;28;20043;-88
2023/06/09 04:40:03;;;;;;;22.92;8.52;;;11.50;99.90;;;;;;4978733;28;20046;-86
2023/06/09 04:42:53;;;;;;;29.70;9.15;;;11.60;99.90;;;;;;5006097;28;20042;-86
2023/06/09 04:45:43;;;;;;;22.25;8.40;;;11.60;99.90;;;;;;4995190;28;20078;-87
2023/06/09 04:48:18;;;;;;;25.40;9.50;;;11.70;99.90;;;;;;5005726;28;20085;-87
2023/06/09 04:50:47;;;;;;;24.60;8.40;;;11.70;99.90;;;;;;4981202;28;20046;-87
2023/06/09 04:53:24;;;;;;;25.73;8.30;;;12.10;99.90;;;;;;5005745;28;20039;-87
2023/06/09 04:56:00;;;;;;;24.33;8.77;;;11.80;99.90;;;;;;4975084;28;20045;-87
2023/06/09 04:58:41;;;;;;;26.02;9.05;;;12.60;99.90;;;;;;4961270;28;20081;-87
2023/06/09 05:01:14;;;;;;;;;;;11.80;99.90;;;;;;4984432;28;20050;-86
2023/06/09 05:03:41;;;;;;;21.98;8.77;;;12.00;99.90;;;;;;4984729;28;19926;-87
2023/06/09 05:06:07;;;;;;;22.25;8.88;;;12.50;99.90;;;;;;4987919;28;20047;-88
2023/06/09 05:08:36;;;;;;;21.25;8.63;;;12.10;99.90;;;;;;5004725;28;20061;-86
2023/06/09 05:11:02;;;;;;;25.70;8.95;;;12.20;99.90;;;;;;4982960;28;20054;-87
2023/06/09 05:13:30;;;;;;;23.27;8.88;;;12.20;99.90;;;;;;4996442;28;20042;-88
2023/06/09 05:23:44;;;;;;;24.27;9.07;;;12.60;99.90;;;;;;5002872;28;20053;-88
2023/06/09 05:26:11;;;;;;;26.92;10.40;;;12.70;99.90;;;;;;5008810;28;20114;-88
2023/06/09 05:28:36;;;;;;;21.52;8.40;;;12.70;99.90;;;;;;4987178;28;20513;-87
2023/06/09 05:31:02;;;;;;;24.98;9.30;;;12.90;99.90;;;;;;5007595;28;20059;-87
2023/06/09 05:33:28;;;;;;;27.38;9.32;;;13.30;99.90;;;;;;5003807;28;20046;-87
2023/06/09 05:35:56;;;;;;;24.92;9.98;;;13.10;99.90;;;;;;4989213;28;20047;-86
2023/06/09 05:38:25;;;;;;;26.63;8.93;;;13.20;99.90;;;;;;4988572;28;20050;-88
2023/06/09 05:40:52;;;;;;;22.17;8.90;;;13.30;99.90;;;;;;4984551;28;20048;-87
2023/06/09 05:43:21;;;;;;;20.05;8.80;;;13.40;99.90;;;;;;5000501;28;20046;-87
2023/06/09 05:45:47;;;;;;;23.73;8.77;;;14.20;99.90;;;;;;5001931;28;20367;-87
2023/06/09 05:48:16;;;;;;;23.20;8.80;;;13.70;99.90;;;;;;5001305;28;20065;-87
2023/06/09 05:50:48;;;;;;;23.05;8.82;;;13.70;99.90;;;;;;5000657;28;20100;-87
2023/06/09 05:53:15;;;;;;;21.05;9.10;;;13.80;99.90;;;;;;4984971;28;20050;-86
2023/06/09 05:55:41;;;;;;;19.33;8.93;;;14.00;99.90;;;;;;5000128;28;20050;-89
2023/06/09 05:58:07;;;;;;;23.30;8.52;;;14.00;99.90;;;;;;4987037;28;20042;-86
2023/06/09 06:00:40;;;;;;;19.00;8.90;;;14.30;99.90;;;;;;5002897;28;20081;-87
2023/06/09 06:03:11;;;;;;;19.33;8.15;;;14.20;99.90;;;;;;4983635;28;20054;-86
2023/06/09 06:05:37;;;;;;;22.05;9.20;;;14.30;99.90;;;;;;4980890;28;20038;-87
2023/06/09 06:08:05;;;;;;;18.83;7.80;;;14.50;99.90;;;;;;5004414;28;20113;-88
2023/06/09 06:10:33;;;;;;;20.77;8.35;;;14.60;99.90;;;;;;4978404;28;20042;-87
2023/06/09 06:13:02;;;;;;;23.00;8.70;;;15.00;99.90;;;;;;4977214;28;20053;-87
2023/06/09 06:15:27;;;;;;;21.27;8.90;;;15.20;99.90;;;;;;4975929;28;20050;-88
2023/06/09 06:17:53;;;;;;;19.98;8.02;;;15.10;99.90;;;;;;4992951;28;20406;-87
2023/06/09 06:20:19;;;;;;;19.73;8.10;;;15.00;99.90;;;;;;4993730;28;20049;-87
2023/06/09 06:22:44;;;;;;;21.98;9.50;;;15.10;99.90;;;;;;4976495;28;20058;-87
2023/06/09 06:25:13;;;;;;;17.95;8.02;;;15.20;99.90;;;;;;4993541;28;20403;-86
2023/06/09 06:27:40;;;;;;;20.10;8.82;;;15.30;99.90;;;;;;4995070;28;20097;-87
2023/06/09 06:30:08;;;;;;;20.75;8.27;;;15.50;99.90;;;;;;4993787;28;20066;-87
2023/06/09 06:32:35;;;;;;;15.73;7.07;;;15.60;99.90;;;;;;4975958;28;20081;-87
2023/06/09 06:35:01;;;;;;;16.15;6.97;;;16.40;99.90;;;;;;4994127;28;20039;-87
2023/06/09 06:37:28;;;;;;;19.92;8.40;;;15.90;99.90;;;;;;4976234;28;20097;-88
2023/06/09 06:39:54;;;;;;;20.20;7.60;;;16.00;99.90;;;;;;4977146;28;20050;-88
2023/06/09 06:42:20;;;;;;;17.45;7.63;;;16.20;99.90;;;;;;4993422;28;20483;-86
2023/06/09 06:44:45;;;;;;;17.23;7.45;;;16.40;99.90;;;;;;4975527;28;20043;-87
2023/06/09 06:47:11;;;;;;;16.25;7.70;;;16.50;99.90;;;;;;4993236;28;20061;-87
2023/06/09 06:49:37;;;;;;;16.80;7.25;;;16.90;99.90;;;;;;4993967;28;20082;-87
2023/06/09 06:52:02;;;;;;;17.80;7.15;;;16.80;99.90;;;;;;4975595;28;20050;-87
2023/06/09 06:54:28;;;;;;;18.38;6.95;;;16.90;99.90;;;;;;4975471;28;20042;-88
2023/06/09 06:56:54;;;;;;;16.67;6.57;;;17.10;99.90;;;;;;4975966;28;20053;-87
2023/06/09 06:59:19;;;;;;;15.82;6.88;;;17.30;99.90;;;;;;4975517;28;20110;-88
2023/06/09 07:01:51;;;;;;;16.38;6.25;;;17.40;99.90;;;;;;5085621;22;20054;-83
2023/06/09 07:04:17;;;;;;;13.43;6.18;;;17.50;99.90;;;;;;4975691;28;20046;-83
2023/06/09 07:06:42;;;;;;;13.35;6.28;;;17.70;99.90;;;;;;4975292;28;20050;-83
2023/06/09 07:09:11;;;;;;;15.38;6.35;;;17.80;99.90;;;;;;4992769;28;20042;-83
2023/06/09 07:11:37;;;;;;;16.90;6.20;;;18.00;99.90;;;;;;4975632;28;20042;-83
2023/06/09 07:14:10;;;;;;;14.43;6.47;;;18.30;99.90;;;;;;4974752;28;20043;-83
2023/06/09 07:16:35;;;;;;;15.10;6.10;;;18.60;99.90;;;;;;4993326;28;20115;-83
2023/06/09 07:19:16;;;;;;;12.82;5.80;;;18.50;99.90;;;;;;4993115;28;20049;-83
2023/06/09 07:21:41;;;;;;;14.55;6.45;;;18.80;99.90;;;;;;4974993;28;20042;-83
2023/06/09 07:24:19;;;;;;;14.32;6.32;;;19.30;99.90;;;;;;4978572;28;20140;-83
2023/06/09 07:26:45;;;;;;;14.90;6.32;;;19.00;99.90;;;;;;4978559;28;20077;-83
2023/06/09 07:29:17;;;;;;;15.45;5.90;;;19.40;99.90;;;;;;4978756;28;20434;-83
2023/06/09 07:31:43;;;;;;;13.80;6.30;;;19.20;99.90;;;;;;4979145;28;20049;-83
2023/06/09 07:34:08;;;;;;;14.02;6.20;;;19.30;99.90;;;;;;4995536;28;20038;-83
2023/06/09 07:36:50;;;;;;;15.20;5.93;;;19.40;99.90;;;;;;4978643;28;20490;-83
2023/06/09 07:39:19;;;;;;;15.00;6.30;;;19.70;99.90;;;;;;4978862;28;20046;-83
2023/06/09 07:41:45;;;;;;;15.35;6.07;;;19.80;99.90;;;;;;4978153;28;20092;-83
2023/06/09 07:44:23;;;;;;;14.02;6.20;;;19.80;99.90;;;;;;4996142;28;20038;-83
2023/06/09 07:46:50;;;;;;;15.57;6.43;;;20.00;99.90;;;;;;4978855;28;20050;-83
2023/06/09 07:49:16;;;;;;;13.60;5.97;;;20.20;99.90;;;;;;4977654;28;20067;-83
2023/06/09 07:51:52;;;;;;;14.32;6.30;;;21.10;99.90;;;;;;4978467;28;20084;-83
2023/06/09 07:54:18;;;;;;;18.05;6.13;;;20.40;99.90;;;;;;4978234;28;20421;-83
2023/06/09 07:56:50;;;;;;;13.20;6.15;;;21.10;99.90;;;;;;4978036;28;20053;-83
2023/06/09 07:59:19;;;;;;;13.68;6.43;;;21.10;99.90;;;;;;4995650;28;20478;-83
2023/06/09 08:01:48;;;;;;;13.45;5.80;;;20.60;99.90;;;;;;4986160;28;20050;-83
2023/06/09 08:04:18;;;;;;;12.02;5.57;;;20.90;99.90;;;;;;4956492;28;20047;-83
2023/06/09 08:07:02;;;;;;;13.10;5.57;;;21.00;99.90;;;;;;4978703;28;20046;-83
2023/06/09 08:09:46;;;;;;;11.55;5.30;;;21.20;99.90;;;;;;4944177;28;20054;-83
2023/06/09 08:12:13;;;;;;;14.30;5.65;;;21.30;99.90;;;;;;4995349;28;20130;-83
2023/06/09 08:14:57;;;;;;;14.13;5.35;;;21.60;99.90;;;;;;4978323;28;20054;-83
2023/06/09 08:17:45;;;;;;;13.85;5.70;;;21.70;99.90;;;;;;4976960;28;20046;-83
2023/06/09 08:20:28;;;;;;;15.00;5.65;;;22.10;99.90;;;;;;4977704;28;20140;-83
2023/06/09 08:23:10;;;;;;;11.82;5.10;;;22.20;99.90;;;;;;4980317;28;20508;-83
2023/06/09 08:25:36;;;;;;;14.43;5.78;;;22.30;99.90;;;;;;4995875;28;20486;-82
2023/06/09 08:28:22;;;;;;;11.95;5.05;;;22.40;99.90;;;;;;4952782;28;20074;-83
2023/06/09 08:30:57;;;;;;;13.73;5.38;;;23.00;99.90;;;;;;4994908;28;20096;-84
2023/06/09 08:33:23;;;;;;;12.10;5.13;;;22.70;99.90;;;;;;4994580;28;20062;-83
2023/06/09 08:35:55;;;;;;;16.08;5.72;;;22.80;99.90;;;;;;4977924;28;20042;-83
2023/06/09 08:38:39;;;;;;;11.18;5.20;;;23.00;99.90;;;;;;4976922;28;20125;-84
2023/06/09 08:41:25;;;;;;;12.00;5.35;;;23.00;99.90;;;;;;4995597;28;20034;-83
2023/06/09 08:43:55;;;;;;;11.55;5.40;;;23.20;99.90;;;;;;4966802;28;20092;-83
2023/06/09 08:56:22;;;;;;;11.60;5.25;;;23.80;99.70;;;;;;4896742;29;20060;-84
2023/06/09 09:02:48;;;;;;;13.50;5.63;;;24.10;99.40;;;;;;4897051;29;20112;-83
2023/06/09 09:05:30;;;;;;;11.65;5.35;;;24.30;99.90;;;;;;4880701;29;20063;-83
2023/06/09 09:08:20;;;;;;;12.27;5.25;;;24.50;98.40;;;;;;4896999;29;20052;-83
2023/06/09 09:11:02;;;;;;;10.65;5.25;;;24.60;98.30;;;;;;4881152;29;20117;-84
2023/06/09 09:13:47;;;;;;;12.13;5.22;;;24.80;98.20;;;;;;4882244;29;20143;-83
2023/06/09 09:16:39;;;;;;;13.32;5.53;;;24.90;98.40;;;;;;4881842;29;20052;-84
2023/06/09 09:19:05;;;;;;;12.93;5.55;;;25.00;98.70;;;;;;4908248;23;20422;-84
2023/06/09 09:22:16;;;;;;;12.13;5.68;;;25.10;98.60;;;;;;5014059;28;20510;-85
2023/06/09 09:25:26;;;;;;;11.40;5.68;;;25.00;96.90;;;;;;4990828;28;20412;-84
2023/06/09 09:31:06;;;;;;;13.48;5.10;;;25.50;97.90;;;;;;5018569;23;20452;-84
2023/06/09 09:38:37;;;;;;;11.10;5.57;;;26.00;97.00;;;;;;4956149;28;20062;-85
2023/06/09 09:44:52;;;;;;;11.77;5.30;;;26.40;96.50;;;;;;4972087;28;20098;-84
2023/06/09 09:52:50;;;;;;;11.68;5.03;;;26.90;96.00;;;;;;5872154;23;20092;-82
2023/06/09 09:55:25;;;;;;;11.43;4.80;;;27.00;94.70;;;;;;5012759;28;20069;-83
2023/06/09 09:57:54;;;;;;;11.70;5.70;;;27.10;95.40;;;;;;4995772;28;20053;-83
2023/06/09 10:03:42;;;;;;;10.00;5.03;;;27.30;94.60;;;;;;5012796;28;20493;-83
2023/06/09 10:06:47;;;;;;;11.43;5.35;;;27.40;95.00;;;;;;5012268;28;20056;-83
2023/06/09 10:09:24;;;;;;;12.30;5.40;;;27.50;93.80;;;;;;5011270;28;20046;-83
2023/06/09 10:15:23;;;;;;;;;;;;;;;;;;;;;
2023/06/09 10:17:56;;;;;;;9.80;5.20;;;27.90;92.90;;;;;;4963066;28;20045;-83
2023/06/09 10:20:44;;;;;;;12.27;5.03;;;27.90;93.60;;;;;;5012594;28;20096;-83
2023/06/09 10:23:34;;;;;;;12.48;5.55;;;28.10;93.00;;;;;;5012459;28;20053;-83
2023/06/09 10:29:58;;;;;;;11.73;4.85;;;28.60;92.70;;;;;;5031754;28;20050;-83
2023/06/09 10:32:26;;;;;;;;;;;28.70;92.60;;;;;;5015045;28;20041;-82
2023/06/09 10:34:53;;;;;;;9.95;4.90;;;28.80;91.20;;;;;;5014843;28;19925;-83
2023/06/09 10:37:50;;;;;;;9.95;4.80;;;28.90;92.40;;;;;;5031594;28;20049;-83
2023/06/09 10:40:59;;;;;;;9.93;4.70;;;29.10;91.10;;;;;;5014707;28;20049;-83
2023/06/09 10:44:03;;;;;;;9.52;5.20;;;29.10;91.70;;;;;;5014786;28;20054;-83
2023/06/09 10:47:02;;;;;;;;;;;29.40;91.10;;;;;;5014902;28;20045;-83
2023/06/09 10:50:18;;;;;;;13.82;5.88;;;29.30;90.30;;;;;;5029492;28;19921;-83
2023/06/09 10:52:57;;;;;;;10.45;5.00;;;29.60;91.40;;;;;;4967021;28;20059;-83
2023/06/09 10:55:31;;;;;;;13.38;5.43;;;29.80;91.00;;;;;;4955111;28;20487;-83
2023/06/09 11:02:15;;;;;;;9.88;4.88;;;30.00;90.30;;;;;;4918231;29;20048;-83
2023/06/09 11:06:03;;;;;;;10.35;5.25;;;29.70;88.70;;;;;;4917686;29;20044;-83
2023/06/09 11:09:34;;;;;;;11.40;4.97;;;29.80;90.00;;;;;;4904199;29;20065;-83
2023/06/09 11:12:24;;;;;;;9.07;4.70;;;29.90;89.00;;;;;;4917077;29;20456;-83
2023/06/09 11:15:07;;;;;;;9.90;5.05;;;30.30;89.10;;;;;;4909354;29;20063;-83
2023/06/09 11:18:26;;;;;;;10.55;5.43;;;30.40;89.00;;;;;;4901722;29;20456;-82
2023/06/09 11:32:08;;;;;;;11.23;4.85;;;30.60;87.20;;;;;;5080371;28;20086;-83
2023/06/09 11:38:23;;;;;;;11.02;5.20;;;30.70;87.30;;;;;;5058222;28;20112;-82
2023/06/09 11:41:13;;;;;;;10.57;4.90;;;30.60;85.50;;;;;;5075558;28;20044;-83
2023/06/09 11:43:55;;;;;;;11.05;5.45;;;30.60;86.40;;;;;;5076157;28;20538;-83
2023/06/09 11:46:34;;;;;;;10.98;5.18;;;30.80;86.50;;;;;;5052457;28;20053;-83
2023/06/09 11:49:10;;;;;;;12.25;5.22;;;30.80;85.20;;;;;;5057431;28;20135;-83
2023/06/09 11:52:12;;;;;;;10.90;5.25;;;31.00;85.40;;;;;;5058035;28;20127;-83
2023/06/09 11:58:24;;;;;;;11.27;5.18;;;31.10;84.70;;;;;;5075116;28;20091;-83
2023/06/09 12:00:49;;;;;;;11.05;5.45;;;31.20;84.90;;;;;;5057222;22;20148;-84
2023/06/09 12:03:19;;;;;;;10.38;5.30;;;31.10;85.20;;;;;;5033121;28;20132;-83
2023/06/09 12:05:49;;;;;;;9.85;4.90;;;31.20;84.70;;;;;;5035343;28;20051;-83
2023/06/09 12:08:21;;;;;;;10.73;5.38;;;31.50;84.90;;;;;;5032021;28;20095;-83
2023/06/09 12:11:03;;;;;;;11.55;5.25;;;31.60;83.70;;;;;;5032394;28;20440;-83
2023/06/09 12:13:29;;;;;;;10.10;5.30;;;31.40;84.30;;;;;;5033581;28;20088;-83
2023/06/09 12:16:01;;;;;;;10.82;5.22;;;31.40;84.10;;;;;;5034150;28;20084;-83
2023/06/09 12:18:27;;;;;;;10.88;5.40;;;31.40;83.00;;;;;;5034794;28;20509;-83
2023/06/09 12:20:53;;;;;;;12.00;5.32;;;31.40;83.30;;;;;;5033651;28;20132;-83
2023/06/09 12:23:27;;;;;;;9.45;4.97;;;31.40;82.80;;;;;;5032840;28;20404;-83
2023/06/09 12:25:52;;;;;;;11.43;5.32;;;31.40;82.90;;;;;;5034840;28;20046;-83
2023/06/09 12:28:26;;;;;;;9.82;5.10;;;31.60;83.10;;;;;;5033243;28;20099;-83
2023/06/09 12:31:09;;;;;;;9.68;5.20;;;31.70;82.40;;;;;;5032950;28;20049;-83
2023/06/09 12:33:35;;;;;;;10.30;5.18;;;31.90;82.30;;;;;;5035049;28;20073;-83
2023/06/09 12:36:09;;;;;;;10.90;5.07;;;32.00;82.80;;;;;;5033475;28;20045;-83
2023/06/09 12:38:39;;;;;;;11.82;5.68;;;32.20;81.90;;;;;;5032780;28;20056;-83
2023/06/09 12:41:06;;;;;;;11.05;5.75;;;32.40;82.00;;;;;;5033244;28;20132;-83
2023/06/09 12:43:54;;;;;;;10.38;5.25;;;32.30;81.50;;;;;;5033970;28;20053;-83
2023/06/09 12:46:35;;;;;;;11.70;5.00;;;32.60;80.40;;;;;;5033271;28;20073;-83
2023/06/09 12:49:07;;;;;;;10.98;5.20;;;32.80;81.60;;;;;;5034406;28;20037;-83
2023/06/09 12:51:36;;;;;;;11.23;5.22;;;32.80;81.00;;;;;;5032164;28;20052;-83
2023/06/09 12:54:03;;;;;;;10.60;5.38;;;32.60;80.90;;;;;;5033078;28;20045;-83
2023/06/09 12:56:28;;;;;;;9.75;5.15;;;32.60;80.60;;;;;;5032653;28;20400;-83
2023/06/09 12:58:54;;;;;;;10.52;5.40;;;32.50;79.90;;;;;;5033657;28;20046;-83
2023/06/09 13:01:21;;;;;;;10.77;5.15;;;32.70;79.90;;;;;;5032467;28;20056;-83
2023/06/09 13:03:47;;;;;;;9.52;5.32;;;32.90;79.80;;;;;;5032804;28;20042;-83
2023/06/09 13:06:13;;;;;;;10.45;5.00;;;32.80;79.60;;;;;;5031843;28;20091;-83
2023/06/09 13:08:38;;;;;;;9.05;5.13;;;32.90;79.40;;;;;;5032768;28;20081;-83
2023/06/09 13:11:04;;;;;;;8.90;5.40;;;33.10;79.90;;;;;;5032906;28;20045;-83
2023/06/09 13:13:30;;;;;;;9.63;5.18;;;33.20;79.30;;;;;;5033094;28;20108;-83
2023/06/09 13:15:57;;;;;;;10.52;5.13;;;33.10;79.00;;;;;;5033074;28;20507;-83
2023/06/09 13:18:23;;;;;;;9.93;5.43;;;33.30;79.00;;;;;;5033151;28;20148;-83
2023/06/09 13:20:48;;;;;;;9.52;5.22;;;33.30;79.00;;;;;;5033613;28;20033;-83
2023/06/09 13:23:14;;;;;;;11.48;5.70;;;33.00;78.20;;;;;;5032353;28;20512;-83
2023/06/09 13:25:43;;;;;;;14.02;5.68;;;33.00;78.20;;;;;;5031549;28;20052;-84
2023/06/09 13:28:09;;;;;;;10.20;5.55;;;33.00;78.00;;;;;;5032389;28;20405;-83
2023/06/09 13:30:36;;;;;;;10.70;4.97;;;33.10;77.60;;;;;;5032226;28;20041;-83
2023/06/09 13:33:02;;;;;;;12.10;5.53;;;33.10;77.60;;;;;;5032915;28;20049;-83
2023/06/09 13:35:28;;;;;;;10.32;5.50;;;33.00;77.40;;;;;;5033426;28;20442;-83
2023/06/09 13:37:58;;;;;;;12.35;5.40;;;32.90;77.40;;;;;;5032586;28;20053;-82
2023/06/09 13:40:24;;;;;;;9.10;5.07;;;33.00;77.70;;;;;;5032594;28;20389;-83
2023/06/09 13:42:52;;;;;;;10.20;5.18;;;32.70;77.40;;;;;;5032014;28;20045;-83
2023/06/09 13:45:19;;;;;;;9.60;5.40;;;32.10;77.30;;;;;;5032991;28;20498;-83
2023/06/09 13:47:45;;;;;;;9.80;5.28;;;31.70;77.50;;;;;;5032319;28;20053;-83
2023/06/09 13:50:11;;;;;;;9.25;5.25;;;31.90;78.20;;;;;;5092855;22;20052;-83
2023/06/09 13:52:37;;;;;;;9.18;5.68;;;32.20;78.10;;;;;;5053318;28;20094;-83
2023/06/09 13:55:04;;;;;;;10.43;5.70;;;32.40;77.60;;;;;;5050906;28;20138;-83
2023/06/09 13:57:30;;;;;;;11.73;5.57;;;32.50;77.60;;;;;;5051349;28;20041;-83
2023/06/09 13:59:56;;;;;;;9.98;5.40;;;32.80;77.50;;;;;;5052143;28;20072;-83
2023/06/09 14:02:22;;;;;;;11.02;5.13;;;33.10;76.90;;;;;;5050892;28;20084;-84
2023/06/09 14:04:48;;;;;;;10.50;5.47;;;33.20;76.30;;;;;;5053088;28;20047;-83
2023/06/09 14:07:14;;;;;;;10.07;4.90;;;33.20;76.10;;;;;;5051349;28;20045;-83
2023/06/09 14:09:41;;;;;;;10.98;5.30;;;33.20;75.90;;;;;;5051206;28;20052;-83
2023/06/09 14:12:07;;;;;;;11.35;5.28;;;32.90;75.20;;;;;;5051179;28;20048;-83
2023/06/09 14:14:33;;;;;;;10.20;5.10;;;32.60;75.50;;;;;;5051672;28;20162;-83